sensor_id;sensor_type;location;lat;lon;timestamp;P1;durP1;ratioP1;P2;durP2;ratioP2
78666;SDS011;67983;59.830;30.198;2023-03-14T00:01:22;1.20;;;0.90;;
78666;SDS011;67983;59.830;30.198;2023-03-14T00:03:51;0.73;;;0.70;;
78666;SDS011;67983;59.830;30.198;2023-03-14T00:06:19;1.75;;;1.25;;
78666;SDS011;67983;59.830;30.198;2023-03-14T00:08:47;2.88;;;1.20;;
78666;SDS011;67983;59.830;30.198;2023-03-14T00:11:19;1.55;;;1.10;;
78666;SDS011;67983;59.830;30.198;2023-03-14T00:13:51;1.52;;;1.23;;
78666;SDS011;67983;59.830;30.198;2023-03-14T00:16:19;5.45;;;3.17;;
78666;SDS011;67983;59.830;30.198;2023-03-14T00:18:53;3.05;;;1.88;;
78666;SDS011;67983;59.830;30.198;2023-03-14T00:21:20;1.20;;;1.10;;
78666;SDS011;67983;59.830;30.198;2023-03-14T00:23:47;2.83;;;1.05;;
78666;SDS011;67983;59.830;30.198;2023-03-14T00:26:16;1.50;;;1.02;;
78666;SDS011;67983;59.830;30.198;2023-03-14T00:28:44;1.35;;;0.90;;
78666;SDS011;67983;59.830;30.198;2023-03-14T00:31:12;1.00;;;0.82;;
78666;SDS011;67983;59.830;30.198;2023-03-14T00:33:42;1.95;;;1.13;;
78666;SDS011;67983;59.830;30.198;2023-03-14T00:36:12;1.00;;;0.73;;
78666;SDS011;67983;59.830;30.198;2023-03-14T00:38:41;10.27;;;1.33;;
78666;SDS011;67983;59.830;30.198;2023-03-14T00:41:10;1.98;;;1.30;;
78666;SDS011;67983;59.830;30.198;2023-03-14T00:43:38;1.15;;;0.90;;
78666;SDS011;67983;59.830;30.198;2023-03-14T00:46:06;2.72;;;1.00;;
78666;SDS011;67983;59.830;30.198;2023-03-14T00:48:36;0.88;;;0.82;;
78666;SDS011;67983;59.830;30.198;2023-03-14T00:51:07;1.55;;;1.20;;
78666;SDS011;67983;59.830;30.198;2023-03-14T00:53:37;0.98;;;0.95;;
78666;SDS011;67983;59.830;30.198;2023-03-14T00:56:08;2.42;;;1.23;;
78666;SDS011;67983;59.830;30.198;2023-03-14T00:58:36;1.05;;;0.82;;
78666;SDS011;67983;59.830;30.198;2023-03-14T01:01:06;1.17;;;0.98;;
78666;SDS011;67983;59.830;30.198;2023-03-14T01:03:35;1.83;;;0.73;;
78666;SDS011;67983;59.830;30.198;2023-03-14T01:06:09;2.42;;;1.25;;
78666;SDS011;67983;59.830;30.198;2023-03-14T01:08:43;0.98;;;0.73;;
78666;SDS011;67983;59.830;30.198;2023-03-14T01:11:11;1.58;;;1.45;;
78666;SDS011;67983;59.830;30.198;2023-03-14T01:13:41;1.50;;;1.05;;
78666;SDS011;67983;59.830;30.198;2023-03-14T01:16:09;1.20;;;1.05;;
78666;SDS011;67983;59.830;30.198;2023-03-14T01:18:38;2.83;;;1.50;;
78666;SDS011;67983;59.830;30.198;2023-03-14T01:21:10;1.50;;;1.15;;
78666;SDS011;67983;59.830;30.198;2023-03-14T01:24:06;2.85;;;1.95;;
78666;SDS011;67983;59.830;30.198;2023-03-14T01:26:35;1.65;;;1.55;;
78666;SDS011;67983;59.830;30.198;2023-03-14T01:29:03;2.35;;;1.58;;
78666;SDS011;67983;59.830;30.198;2023-03-14T01:31:33;2.67;;;2.08;;
78666;SDS011;67983;59.830;30.198;2023-03-14T01:34:01;2.83;;;1.60;;
78666;SDS011;67983;59.830;30.198;2023-03-14T01:36:28;2.95;;;1.48;;
78666;SDS011;67983;59.830;30.198;2023-03-14T01:38:55;1.60;;;1.50;;
78666;SDS011;67983;59.830;30.198;2023-03-14T01:41:25;2.50;;;1.58;;
78666;SDS011;67983;59.830;30.198;2023-03-14T01:43:54;2.03;;;1.65;;
78666;SDS011;67983;59.830;30.198;2023-03-14T01:46:26;2.83;;;2.22;;
78666;SDS011;67983;59.830;30.198;2023-03-14T01:49:06;2.50;;;1.83;;
78666;SDS011;67983;59.830;30.198;2023-03-14T01:51:41;1.90;;;1.60;;
78666;SDS011;67983;59.830;30.198;2023-03-14T01:54:15;3.33;;;2.10;;
78666;SDS011;67983;59.830;30.198;2023-03-14T01:56:48;2.85;;;2.10;;
78666;SDS011;67983;59.830;30.198;2023-03-14T01:59:23;2.78;;;2.35;;
78666;SDS011;67983;59.830;30.198;2023-03-14T02:01:53;2.45;;;1.50;;
78666;SDS011;67983;59.830;30.198;2023-03-14T02:04:23;5.93;;;2.70;;
78666;SDS011;67983;59.830;30.198;2023-03-14T02:07:00;2.95;;;2.45;;
78666;SDS011;67983;59.830;30.198;2023-03-14T02:09:36;4.60;;;2.10;;
78666;SDS011;67983;59.830;30.198;2023-03-14T02:12:09;2.78;;;2.25;;
78666;SDS011;67983;59.830;30.198;2023-03-14T02:14:49;2.00;;;1.77;;
78666;SDS011;67983;59.830;30.198;2023-03-14T02:17:23;2.40;;;1.92;;
78666;SDS011;67983;59.830;30.198;2023-03-14T02:20:10;3.47;;;2.85;;
78666;SDS011;67983;59.830;30.198;2023-03-14T02:22:57;3.20;;;2.30;;
78666;SDS011;67983;59.830;30.198;2023-03-14T02:25:28;3.72;;;2.22;;
78666;SDS011;67983;59.830;30.198;2023-03-14T02:28:07;3.28;;;2.55;;
78666;SDS011;67983;59.830;30.198;2023-03-14T02:30:36;2.13;;;1.92;;
78666;SDS011;67983;59.830;30.198;2023-03-14T02:33:04;3.42;;;2.50;;
78666;SDS011;67983;59.830;30.198;2023-03-14T02:35:35;2.67;;;2.25;;
78666;SDS011;67983;59.830;30.198;2023-03-14T02:38:05;2.53;;;1.83;;
78666;SDS011;67983;59.830;30.198;2023-03-14T02:40:43;3.78;;;2.75;;
78666;SDS011;67983;59.830;30.198;2023-03-14T02:43:15;3.88;;;2.10;;
78666;SDS011;67983;59.830;30.198;2023-03-14T02:45:49;2.72;;;2.40;;
78666;SDS011;67983;59.830;30.198;2023-03-14T02:48:20;2.70;;;2.40;;
78666;SDS011;67983;59.830;30.198;2023-03-14T02:50:52;2.70;;;2.28;;
78666;SDS011;67983;59.830;30.198;2023-03-14T02:53:23;2.55;;;2.35;;
78666;SDS011;67983;59.830;30.198;2023-03-14T02:55:55;3.00;;;2.58;;
78666;SDS011;67983;59.830;30.198;2023-03-14T02:58:24;4.43;;;2.53;;
78666;SDS011;67983;59.830;30.198;2023-03-14T03:01:00;3.83;;;2.60;;
78666;SDS011;67983;59.830;30.198;2023-03-14T03:03:28;3.33;;;2.03;;
78666;SDS011;67983;59.830;30.198;2023-03-14T03:05:55;2.78;;;2.13;;
78666;SDS011;67983;59.830;30.198;2023-03-14T03:08:23;3.25;;;2.05;;
78666;SDS011;67983;59.830;30.198;2023-03-14T03:10:53;3.85;;;2.72;;
78666;SDS011;67983;59.830;30.198;2023-03-14T03:13:22;4.88;;;2.30;;
78666;SDS011;67983;59.830;30.198;2023-03-14T03:15:57;3.17;;;2.30;;
78666;SDS011;67983;59.830;30.198;2023-03-14T03:18:25;2.65;;;2.10;;
78666;SDS011;67983;59.830;30.198;2023-03-14T03:20:53;3.13;;;2.47;;
78666;SDS011;67983;59.830;30.198;2023-03-14T03:23:23;2.08;;;1.45;;
78666;SDS011;67983;59.830;30.198;2023-03-14T03:25:50;2.15;;;1.48;;
78666;SDS011;67983;59.830;30.198;2023-03-14T03:28:18;2.67;;;2.10;;
78666;SDS011;67983;59.830;30.198;2023-03-14T03:30:46;2.83;;;1.63;;
78666;SDS011;67983;59.830;30.198;2023-03-14T03:33:15;2.00;;;1.80;;
78666;SDS011;67983;59.830;30.198;2023-03-14T03:35:45;2.35;;;1.88;;
78666;SDS011;67983;59.830;30.198;2023-03-14T03:38:19;2.45;;;1.83;;
78666;SDS011;67983;59.830;30.198;2023-03-14T03:40:48;4.00;;;2.05;;
78666;SDS011;67983;59.830;30.198;2023-03-14T03:43:15;5.65;;;1.95;;
78666;SDS011;67983;59.830;30.198;2023-03-14T03:45:45;3.05;;;2.17;;
78666;SDS011;67983;59.830;30.198;2023-03-14T03:48:12;2.50;;;1.73;;
78666;SDS011;67983;59.830;30.198;2023-03-14T03:50:44;2.42;;;1.65;;
78666;SDS011;67983;59.830;30.198;2023-03-14T03:53:18;1.77;;;1.67;;
78666;SDS011;67983;59.830;30.198;2023-03-14T03:58:13;3.78;;;1.50;;
78666;SDS011;67983;59.830;30.198;2023-03-14T04:00:40;3.67;;;1.90;;
78666;SDS011;67983;59.830;30.198;2023-03-14T04:03:07;3.08;;;1.60;;
78666;SDS011;67983;59.830;30.198;2023-03-14T04:05:35;2.30;;;1.33;;
78666;SDS011;67983;59.830;30.198;2023-03-14T04:08:10;2.00;;;1.77;;
78666;SDS011;67983;59.830;30.198;2023-03-14T04:10:37;1.70;;;1.45;;
78666;SDS011;67983;59.830;30.198;2023-03-14T04:13:09;1.77;;;1.42;;
78666;SDS011;67983;59.830;30.198;2023-03-14T04:15:37;2.22;;;1.38;;
78666;SDS011;67983;59.830;30.198;2023-03-14T04:18:17;1.70;;;1.42;;
78666;SDS011;67983;59.830;30.198;2023-03-14T04:20:50;3.17;;;1.63;;
78666;SDS011;67983;59.830;30.198;2023-03-14T04:23:21;2.35;;;1.85;;
78666;SDS011;67983;59.830;30.198;2023-03-14T04:25:50;1.45;;;1.20;;
78666;SDS011;67983;59.830;30.198;2023-03-14T04:28:17;2.22;;;1.40;;
78666;SDS011;67983;59.830;30.198;2023-03-14T04:30:45;2.95;;;1.60;;
78666;SDS011;67983;59.830;30.198;2023-03-14T04:33:16;3.78;;;1.77;;
78666;SDS011;67983;59.830;30.198;2023-03-14T04:35:53;1.90;;;1.42;;
78666;SDS011;67983;59.830;30.198;2023-03-14T04:38:22;1.98;;;1.75;;
78666;SDS011;67983;59.830;30.198;2023-03-14T04:40:50;2.90;;;1.52;;
78666;SDS011;67983;59.830;30.198;2023-03-14T04:43:24;2.35;;;1.30;;
78666;SDS011;67983;59.830;30.198;2023-03-14T04:45:58;1.73;;;1.40;;
78666;SDS011;67983;59.830;30.198;2023-03-14T04:48:26;1.73;;;1.20;;
78666;SDS011;67983;59.830;30.198;2023-03-14T04:50:54;1.80;;;1.20;;
78666;SDS011;67983;59.830;30.198;2023-03-14T04:53:24;1.80;;;1.40;;
78666;SDS011;67983;59.830;30.198;2023-03-14T04:55:55;5.10;;;1.60;;
78666;SDS011;67983;59.830;30.198;2023-03-14T04:58:27;3.80;;;1.60;;
78666;SDS011;67983;59.830;30.198;2023-03-14T05:00:56;2.55;;;1.50;;
78666;SDS011;67983;59.830;30.198;2023-03-14T05:03:56;2.88;;;1.20;;
78666;SDS011;67983;59.830;30.198;2023-03-14T05:06:42;1.45;;;1.15;;
78666;SDS011;67983;59.830;30.198;2023-03-14T05:09:37;1.55;;;1.17;;
78666;SDS011;67983;59.830;30.198;2023-03-14T05:12:12;2.25;;;1.70;;
78666;SDS011;67983;59.830;30.198;2023-03-14T05:14:52;4.97;;;1.50;;
78666;SDS011;67983;59.830;30.198;2023-03-14T05:17:48;2.75;;;1.20;;
78666;SDS011;67983;59.830;30.198;2023-03-14T05:20:36;1.60;;;1.20;;
78666;SDS011;67983;59.830;30.198;2023-03-14T05:23:38;1.88;;;1.15;;
78666;SDS011;67983;59.830;30.198;2023-03-14T05:26:37;3.83;;;1.10;;
78666;SDS011;67983;59.830;30.198;2023-03-14T05:29:29;1.40;;;1.10;;
78666;SDS011;67983;59.830;30.198;2023-03-14T05:32:16;2.20;;;1.20;;
78666;SDS011;67983;59.830;30.198;2023-03-14T05:35:06;3.58;;;1.70;;
78666;SDS011;67983;59.830;30.198;2023-03-14T05:40:45;1.48;;;1.13;;
78666;SDS011;67983;59.830;30.198;2023-03-14T05:43:32;3.33;;;0.98;;
78666;SDS011;67983;59.830;30.198;2023-03-14T05:46:15;1.55;;;1.10;;
78666;SDS011;67983;59.830;30.198;2023-03-14T05:48:59;3.30;;;1.13;;
78666;SDS011;67983;59.830;30.198;2023-03-14T05:51:48;0.98;;;0.88;;
78666;SDS011;67983;59.830;30.198;2023-03-14T05:54:27;2.28;;;1.08;;
78666;SDS011;67983;59.830;30.198;2023-03-14T05:57:07;1.67;;;0.93;;
78666;SDS011;67983;59.830;30.198;2023-03-14T05:59:56;1.23;;;1.10;;
78666;SDS011;67983;59.830;30.198;2023-03-14T06:02:52;1.10;;;1.00;;
78666;SDS011;67983;59.830;30.198;2023-03-14T06:05:25;2.53;;;1.77;;
78666;SDS011;67983;59.830;30.198;2023-03-14T06:08:01;1.30;;;1.13;;
78666;SDS011;67983;59.830;30.198;2023-03-14T06:12:58;4.15;;;1.80;;
78666;SDS011;67983;59.830;30.198;2023-03-14T06:15:28;2.40;;;1.65;;
78666;SDS011;67983;59.830;30.198;2023-03-14T06:17:55;2.03;;;1.42;;
78666;SDS011;67983;59.830;30.198;2023-03-14T06:20:23;1.92;;;1.52;;
78666;SDS011;67983;59.830;30.198;2023-03-14T06:22:51;4.70;;;1.83;;
78666;SDS011;67983;59.830;30.198;2023-03-14T06:25:18;2.33;;;2.03;;
78666;SDS011;67983;59.830;30.198;2023-03-14T06:27:47;4.50;;;1.80;;
78666;SDS011;67983;59.830;30.198;2023-03-14T06:30:15;3.90;;;1.83;;
78666;SDS011;67983;59.830;30.198;2023-03-14T06:32:45;2.88;;;1.70;;
78666;SDS011;67983;59.830;30.198;2023-03-14T06:35:14;4.40;;;2.40;;
78666;SDS011;67983;59.830;30.198;2023-03-14T06:37:43;3.17;;;2.00;;
78666;SDS011;67983;59.830;30.198;2023-03-14T06:40:14;5.35;;;2.22;;
78666;SDS011;67983;59.830;30.198;2023-03-14T06:42:53;3.95;;;2.17;;
78666;SDS011;67983;59.830;30.198;2023-03-14T06:45:22;6.63;;;2.55;;
78666;SDS011;67983;59.830;30.198;2023-03-14T06:47:51;3.08;;;2.30;;
78666;SDS011;67983;59.830;30.198;2023-03-14T06:50:24;5.03;;;2.30;;
78666;SDS011;67983;59.830;30.198;2023-03-14T06:52:56;4.95;;;2.50;;
78666;SDS011;67983;59.830;30.198;2023-03-14T06:55:25;3.92;;;2.30;;
78666;SDS011;67983;59.830;30.198;2023-03-14T06:57:53;2.05;;;1.70;;
78666;SDS011;67983;59.830;30.198;2023-03-14T07:00:21;3.95;;;2.25;;
78666;SDS011;67983;59.830;30.198;2023-03-14T07:03:20;2.72;;;2.08;;
78666;SDS011;67983;59.830;30.198;2023-03-14T07:05:51;3.38;;;2.20;;
78666;SDS011;67983;59.830;30.198;2023-03-14T07:08:18;3.67;;;2.22;;
78666;SDS011;67983;59.830;30.198;2023-03-14T07:10:46;4.20;;;2.38;;
78666;SDS011;67983;59.830;30.198;2023-03-14T07:13:13;3.10;;;2.40;;
78666;SDS011;67983;59.830;30.198;2023-03-14T07:15:55;2.22;;;1.90;;
78666;SDS011;67983;59.830;30.198;2023-03-14T07:18:25;3.53;;;2.63;;
78666;SDS011;67983;59.830;30.198;2023-03-14T07:20:52;3.40;;;2.83;;
78666;SDS011;67983;59.830;30.198;2023-03-14T07:23:19;3.10;;;2.33;;
78666;SDS011;67983;59.830;30.198;2023-03-14T07:25:50;4.22;;;2.42;;
78666;SDS011;67983;59.830;30.198;2023-03-14T07:28:21;4.38;;;2.97;;
78666;SDS011;67983;59.830;30.198;2023-03-14T07:30:54;5.88;;;3.08;;
78666;SDS011;67983;59.830;30.198;2023-03-14T07:33:28;5.10;;;2.92;;
78666;SDS011;67983;59.830;30.198;2023-03-14T07:35:55;6.35;;;3.20;;
78666;SDS011;67983;59.830;30.198;2023-03-14T07:38:22;4.40;;;2.88;;
78666;SDS011;67983;59.830;30.198;2023-03-14T07:41:07;6.05;;;3.33;;
78666;SDS011;67983;59.830;30.198;2023-03-14T07:43:44;5.60;;;3.25;;
78666;SDS011;67983;59.830;30.198;2023-03-14T07:46:11;4.60;;;2.72;;
78666;SDS011;67983;59.830;30.198;2023-03-14T07:48:39;4.32;;;3.03;;
78666;SDS011;67983;59.830;30.198;2023-03-14T07:51:06;6.13;;;3.20;;
78666;SDS011;67983;59.830;30.198;2023-03-14T07:53:33;6.75;;;3.50;;
78666;SDS011;67983;59.830;30.198;2023-03-14T07:56:00;6.95;;;3.55;;
78666;SDS011;67983;59.830;30.198;2023-03-14T07:58:31;6.72;;;3.13;;
78666;SDS011;67983;59.830;30.198;2023-03-14T08:00:59;5.50;;;3.60;;
78666;SDS011;67983;59.830;30.198;2023-03-14T08:03:27;5.25;;;3.03;;
78666;SDS011;67983;59.830;30.198;2023-03-14T08:05:56;8.20;;;3.47;;
78666;SDS011;67983;59.830;30.198;2023-03-14T08:08:23;7.13;;;4.13;;
78666;SDS011;67983;59.830;30.198;2023-03-14T08:10:50;7.85;;;4.07;;
78666;SDS011;67983;59.830;30.198;2023-03-14T08:13:20;6.38;;;3.50;;
78666;SDS011;67983;59.830;30.198;2023-03-14T08:15:50;5.63;;;3.03;;
78666;SDS011;67983;59.830;30.198;2023-03-14T08:18:16;6.88;;;3.72;;
78666;SDS011;67983;59.830;30.198;2023-03-14T08:20:43;6.05;;;3.58;;
78666;SDS011;67983;59.830;30.198;2023-03-14T08:23:12;12.30;;;4.75;;
78666;SDS011;67983;59.830;30.198;2023-03-14T08:25:39;9.65;;;4.75;;
78666;SDS011;67983;59.830;30.198;2023-03-14T08:28:06;8.00;;;3.60;;
78666;SDS011;67983;59.830;30.198;2023-03-14T08:30:34;7.65;;;4.28;;
78666;SDS011;67983;59.830;30.198;2023-03-14T08:33:00;7.30;;;4.25;;
78666;SDS011;67983;59.830;30.198;2023-03-14T08:35:28;6.63;;;4.18;;
78666;SDS011;67983;59.830;30.198;2023-03-14T08:37:55;11.02;;;3.97;;
78666;SDS011;67983;59.830;30.198;2023-03-14T08:40:24;8.98;;;3.80;;
78666;SDS011;67983;59.830;30.198;2023-03-14T08:42:56;7.07;;;4.28;;
78666;SDS011;67983;59.830;30.198;2023-03-14T08:45:22;9.35;;;3.67;;
78666;SDS011;67983;59.830;30.198;2023-03-14T08:47:50;6.70;;;3.45;;
78666;SDS011;67983;59.830;30.198;2023-03-14T08:50:22;6.57;;;3.85;;
78666;SDS011;67983;59.830;30.198;2023-03-14T08:53:00;6.10;;;3.72;;
78666;SDS011;67983;59.830;30.198;2023-03-14T08:55:29;7.60;;;4.15;;
78666;SDS011;67983;59.830;30.198;2023-03-14T08:57:56;9.75;;;4.45;;
78666;SDS011;67983;59.830;30.198;2023-03-14T09:00:24;14.40;;;5.05;;
78666;SDS011;67983;59.830;30.198;2023-03-14T09:02:53;11.27;;;4.63;;
78666;SDS011;67983;59.830;30.198;2023-03-14T09:05:20;18.27;;;5.18;;
78666;SDS011;67983;59.830;30.198;2023-03-14T09:07:47;7.90;;;4.90;;
78666;SDS011;67983;59.830;30.198;2023-03-14T09:10:14;9.15;;;4.53;;
78666;SDS011;67983;59.830;30.198;2023-03-14T09:12:42;8.68;;;3.88;;
78666;SDS011;67983;59.830;30.198;2023-03-14T09:15:10;10.52;;;5.55;;
78666;SDS011;67983;59.830;30.198;2023-03-14T09:17:37;14.82;;;4.95;;
78666;SDS011;67983;59.830;30.198;2023-03-14T09:20:05;7.50;;;4.47;;
78666;SDS011;67983;59.830;30.198;2023-03-14T09:22:34;8.35;;;4.47;;
78666;SDS011;67983;59.830;30.198;2023-03-14T09:25:02;9.90;;;4.80;;
78666;SDS011;67983;59.830;30.198;2023-03-14T09:27:33;10.18;;;4.88;;
78666;SDS011;67983;59.830;30.198;2023-03-14T09:30:01;9.25;;;4.53;;
78666;SDS011;67983;59.830;30.198;2023-03-14T09:32:29;9.20;;;4.43;;
78666;SDS011;67983;59.830;30.198;2023-03-14T09:34:57;10.05;;;4.93;;
78666;SDS011;67983;59.830;30.198;2023-03-14T09:37:24;11.45;;;5.10;;
78666;SDS011;67983;59.830;30.198;2023-03-14T09:39:53;13.38;;;4.47;;
78666;SDS011;67983;59.830;30.198;2023-03-14T09:42:25;11.07;;;5.03;;
78666;SDS011;67983;59.830;30.198;2023-03-14T09:44:54;12.40;;;5.05;;
78666;SDS011;67983;59.830;30.198;2023-03-14T09:47:50;9.93;;;4.47;;
78666;SDS011;67983;59.830;30.198;2023-03-14T09:50:18;8.48;;;4.53;;
78666;SDS011;67983;59.830;30.198;2023-03-14T09:52:48;10.43;;;4.90;;
78666;SDS011;67983;59.830;30.198;2023-03-14T09:55:19;9.68;;;5.05;;
78666;SDS011;67983;59.830;30.198;2023-03-14T09:57:48;8.55;;;4.63;;
78666;SDS011;67983;59.830;30.198;2023-03-14T10:00:19;7.75;;;4.10;;
78666;SDS011;67983;59.830;30.198;2023-03-14T10:02:54;10.25;;;4.78;;
78666;SDS011;67983;59.830;30.198;2023-03-14T10:05:26;8.10;;;5.10;;
78666;SDS011;67983;59.830;30.198;2023-03-14T10:07:54;10.05;;;4.55;;
78666;SDS011;67983;59.830;30.198;2023-03-14T10:10:23;6.72;;;4.53;;
78666;SDS011;67983;59.830;30.198;2023-03-14T10:12:56;10.23;;;4.63;;
78666;SDS011;67983;59.830;30.198;2023-03-14T10:15:26;6.07;;;3.85;;
78666;SDS011;67983;59.830;30.198;2023-03-14T10:17:58;9.43;;;5.25;;
78666;SDS011;67983;59.830;30.198;2023-03-14T10:20:28;10.40;;;4.32;;
78666;SDS011;67983;59.830;30.198;2023-03-14T10:23:01;9.13;;;4.00;;
78666;SDS011;67983;59.830;30.198;2023-03-14T10:25:32;10.63;;;4.00;;
78666;SDS011;67983;59.830;30.198;2023-03-14T10:28:01;8.95;;;4.63;;
78666;SDS011;67983;59.830;30.198;2023-03-14T10:30:33;6.13;;;3.63;;
78666;SDS011;67983;59.830;30.198;2023-03-14T10:33:11;9.63;;;4.68;;
78666;SDS011;67983;59.830;30.198;2023-03-14T10:35:52;10.77;;;4.57;;
78666;SDS011;67983;59.830;30.198;2023-03-14T10:38:20;7.80;;;4.57;;
78666;SDS011;67983;59.830;30.198;2023-03-14T10:40:50;8.50;;;4.72;;
78666;SDS011;67983;59.830;30.198;2023-03-14T10:43:22;11.48;;;4.90;;
78666;SDS011;67983;59.830;30.198;2023-03-14T10:45:57;9.27;;;4.63;;
78666;SDS011;67983;59.830;30.198;2023-03-14T10:48:34;12.85;;;5.20;;
78666;SDS011;67983;59.830;30.198;2023-03-14T10:51:04;14.05;;;5.07;;
78666;SDS011;67983;59.830;30.198;2023-03-14T10:53:34;8.90;;;4.78;;
78666;SDS011;67983;59.830;30.198;2023-03-14T10:56:07;7.90;;;4.35;;
78666;SDS011;67983;59.830;30.198;2023-03-14T10:58:40;12.82;;;5.32;;
78666;SDS011;67983;59.830;30.198;2023-03-14T11:01:14;9.43;;;4.70;;
78666;SDS011;67983;59.830;30.198;2023-03-14T11:03:54;12.13;;;4.50;;
78666;SDS011;67983;59.830;30.198;2023-03-14T11:06:31;6.45;;;4.25;;
78666;SDS011;67983;59.830;30.198;2023-03-14T11:09:07;11.48;;;4.47;;
78666;SDS011;67983;59.830;30.198;2023-03-14T11:11:44;7.65;;;3.55;;
78666;SDS011;67983;59.830;30.198;2023-03-14T11:14:15;10.73;;;4.30;;
78666;SDS011;67983;59.830;30.198;2023-03-14T11:16:52;8.65;;;4.18;;
78666;SDS011;67983;59.830;30.198;2023-03-14T11:19:37;11.20;;;5.00;;
78666;SDS011;67983;59.830;30.198;2023-03-14T11:22:20;9.85;;;4.63;;
78666;SDS011;67983;59.830;30.198;2023-03-14T11:27:48;12.10;;;4.80;;
78666;SDS011;67983;59.830;30.198;2023-03-14T11:30:24;13.43;;;5.55;;
78666;SDS011;67983;59.830;30.198;2023-03-14T11:33:03;7.03;;;4.28;;
78666;SDS011;67983;59.830;30.198;2023-03-14T11:35:41;15.13;;;5.35;;
78666;SDS011;67983;59.830;30.198;2023-03-14T11:38:15;9.30;;;4.20;;
78666;SDS011;67983;59.830;30.198;2023-03-14T11:40:51;14.85;;;5.05;;
78666;SDS011;67983;59.830;30.198;2023-03-14T11:43:24;8.10;;;4.43;;
78666;SDS011;67983;59.830;30.198;2023-03-14T11:45:57;10.93;;;4.43;;
78666;SDS011;67983;59.830;30.198;2023-03-14T11:48:35;13.55;;;5.25;;
78666;SDS011;67983;59.830;30.198;2023-03-14T11:51:10;8.43;;;4.32;;
78666;SDS011;67983;59.830;30.198;2023-03-14T11:53:50;9.75;;;4.68;;
78666;SDS011;67983;59.830;30.198;2023-03-14T11:56:29;10.30;;;4.60;;
78666;SDS011;67983;59.830;30.198;2023-03-14T11:59:03;5.97;;;3.65;;
78666;SDS011;67983;59.830;30.198;2023-03-14T12:01:40;13.35;;;5.43;;
78666;SDS011;67983;59.830;30.198;2023-03-14T12:04:33;12.32;;;4.93;;
78666;SDS011;67983;59.830;30.198;2023-03-14T12:07:14;12.88;;;5.07;;
78666;SDS011;67983;59.830;30.198;2023-03-14T12:10:18;12.98;;;5.40;;
78666;SDS011;67983;59.830;30.198;2023-03-14T12:12:48;13.15;;;5.60;;
78666;SDS011;67983;59.830;30.198;2023-03-14T12:15:18;13.07;;;5.55;;
78666;SDS011;67983;59.830;30.198;2023-03-14T12:17:52;11.50;;;5.53;;
78666;SDS011;67983;59.830;30.198;2023-03-14T12:20:24;10.98;;;4.55;;
78666;SDS011;67983;59.830;30.198;2023-03-14T12:22:54;11.23;;;5.38;;
78666;SDS011;67983;59.830;30.198;2023-03-14T12:25:25;13.27;;;5.68;;
78666;SDS011;67983;59.830;30.198;2023-03-14T12:30:50;8.30;;;3.83;;
78666;SDS011;67983;59.830;30.198;2023-03-14T12:33:28;8.63;;;4.40;;
78666;SDS011;67983;59.830;30.198;2023-03-14T12:36:03;13.80;;;5.18;;
78666;SDS011;67983;59.830;30.198;2023-03-14T12:41:36;7.72;;;4.40;;
78666;SDS011;67983;59.830;30.198;2023-03-14T12:50:13;8.82;;;4.30;;
78666;SDS011;67983;59.830;30.198;2023-03-14T12:52:54;10.50;;;5.00;;
78666;SDS011;67983;59.830;30.198;2023-03-14T12:55:45;12.57;;;5.20;;
78666;SDS011;67983;59.830;30.198;2023-03-14T12:58:20;11.98;;;6.20;;
78666;SDS011;67983;59.830;30.198;2023-03-14T13:00:58;12.05;;;6.25;;
78666;SDS011;67983;59.830;30.198;2023-03-14T13:03:39;13.73;;;6.43;;
78666;SDS011;67983;59.830;30.198;2023-03-14T13:06:12;8.85;;;4.50;;
78666;SDS011;67983;59.830;30.198;2023-03-14T13:08:40;11.95;;;5.75;;
78666;SDS011;67983;59.830;30.198;2023-03-14T13:11:12;12.02;;;5.75;;
78666;SDS011;67983;59.830;30.198;2023-03-14T13:13:47;9.63;;;5.28;;
78666;SDS011;67983;59.830;30.198;2023-03-14T13:16:16;10.38;;;5.55;;
78666;SDS011;67983;59.830;30.198;2023-03-14T13:18:45;9.43;;;5.57;;
78666;SDS011;67983;59.830;30.198;2023-03-14T13:21:14;8.73;;;5.10;;
78666;SDS011;67983;59.830;30.198;2023-03-14T13:23:56;12.52;;;5.32;;
78666;SDS011;67983;59.830;30.198;2023-03-14T13:26:31;10.32;;;5.55;;
78666;SDS011;67983;59.830;30.198;2023-03-14T13:29:08;9.15;;;4.85;;
78666;SDS011;67983;59.830;30.198;2023-03-14T13:31:43;8.60;;;5.47;;
78666;SDS011;67983;59.830;30.198;2023-03-14T13:34:12;9.27;;;4.55;;
78666;SDS011;67983;59.830;30.198;2023-03-14T13:36:43;7.72;;;4.35;;
78666;SDS011;67983;59.830;30.198;2023-03-14T13:39:10;7.63;;;4.43;;
78666;SDS011;67983;59.830;30.198;2023-03-14T13:41:43;14.70;;;7.03;;
78666;SDS011;67983;59.830;30.198;2023-03-14T13:44:14;12.77;;;6.22;;
78666;SDS011;67983;59.830;30.198;2023-03-14T13:46:46;11.00;;;5.93;;
78666;SDS011;67983;59.830;30.198;2023-03-14T13:49:21;10.88;;;5.55;;
78666;SDS011;67983;59.830;30.198;2023-03-14T13:51:50;8.70;;;5.40;;
78666;SDS011;67983;59.830;30.198;2023-03-14T13:54:18;12.80;;;5.85;;
78666;SDS011;67983;59.830;30.198;2023-03-14T13:56:49;12.77;;;7.13;;
78666;SDS011;67983;59.830;30.198;2023-03-14T13:59:33;10.70;;;6.60;;
78666;SDS011;67983;59.830;30.198;2023-03-14T14:02:04;9.68;;;5.68;;
78666;SDS011;67983;59.830;30.198;2023-03-14T14:04:40;11.35;;;6.00;;
78666;SDS011;67983;59.830;30.198;2023-03-14T14:07:09;16.63;;;6.60;;
78666;SDS011;67983;59.830;30.198;2023-03-14T14:09:40;14.30;;;5.88;;
78666;SDS011;67983;59.830;30.198;2023-03-14T14:12:16;14.80;;;6.55;;
78666;SDS011;67983;59.830;30.198;2023-03-14T14:14:56;12.52;;;6.40;;
78666;SDS011;67983;59.830;30.198;2023-03-14T14:17:26;14.38;;;6.35;;
78666;SDS011;67983;59.830;30.198;2023-03-14T14:20:02;11.93;;;6.03;;
78666;SDS011;67983;59.830;30.198;2023-03-14T14:22:44;14.52;;;6.78;;
78666;SDS011;67983;59.830;30.198;2023-03-14T14:25:12;16.63;;;6.30;;
78666;SDS011;67983;59.830;30.198;2023-03-14T14:27:43;14.35;;;6.55;;
78666;SDS011;67983;59.830;30.198;2023-03-14T14:30:30;14.55;;;6.28;;
78666;SDS011;67983;59.830;30.198;2023-03-14T14:33:16;7.70;;;4.32;;
78666;SDS011;67983;59.830;30.198;2023-03-14T14:35:52;9.25;;;5.40;;
78666;SDS011;67983;59.830;30.198;2023-03-14T14:38:50;12.40;;;6.88;;
78666;SDS011;67983;59.830;30.198;2023-03-14T14:41:28;11.20;;;6.43;;
78666;SDS011;67983;59.830;30.198;2023-03-14T14:44:10;17.40;;;6.28;;
78666;SDS011;67983;59.830;30.198;2023-03-14T14:46:42;14.90;;;6.68;;
78666;SDS011;67983;59.830;30.198;2023-03-14T14:49:10;10.32;;;5.65;;
78666;SDS011;67983;59.830;30.198;2023-03-14T14:51:41;7.40;;;3.92;;
78666;SDS011;67983;59.830;30.198;2023-03-14T14:54:37;8.45;;;4.95;;
78666;SDS011;67983;59.830;30.198;2023-03-14T14:57:12;8.90;;;5.13;;
78666;SDS011;67983;59.830;30.198;2023-03-14T14:59:47;7.50;;;5.55;;
78666;SDS011;67983;59.830;30.198;2023-03-14T15:02:29;10.02;;;4.90;;
78666;SDS011;67983;59.830;30.198;2023-03-14T15:05:00;7.70;;;4.68;;
78666;SDS011;67983;59.830;30.198;2023-03-14T15:07:30;10.88;;;5.65;;
78666;SDS011;67983;59.830;30.198;2023-03-14T15:10:01;11.48;;;6.18;;
78666;SDS011;67983;59.830;30.198;2023-03-14T15:12:28;13.52;;;6.75;;
78666;SDS011;67983;59.830;30.198;2023-03-14T15:14:57;10.77;;;6.63;;
78666;SDS011;67983;59.830;30.198;2023-03-14T15:17:24;9.32;;;6.05;;
78666;SDS011;67983;59.830;30.198;2023-03-14T15:19:56;8.63;;;5.13;;
78666;SDS011;67983;59.830;30.198;2023-03-14T15:22:29;11.90;;;5.97;;
78666;SDS011;67983;59.830;30.198;2023-03-14T15:25:00;10.75;;;6.80;;
78666;SDS011;67983;59.830;30.198;2023-03-14T15:27:28;14.85;;;8.20;;